createdAt,value
2022-08-17T00:00:43.757Z,100578.00
2022-08-17T00:03:10.222Z,100581.94
2022-08-17T00:05:42.485Z,100586.78
2022-08-17T00:08:11.267Z,100582.84
2022-08-17T00:10:39.690Z,100584.81
2022-08-17T00:13:11.455Z,100577.78
2022-08-17T00:15:39.286Z,100582.94
2022-08-17T00:19:02.047Z,100577.91
2022-08-17T00:20:56.814Z,100584.47
2022-08-17T00:23:25.063Z,100584.09
2022-08-17T00:25:53.685Z,100584.44
2022-08-17T00:28:23.086Z,100590.59
2022-08-17T00:30:53.315Z,100583.19
2022-08-17T00:33:24.090Z,100592.63
2022-08-17T00:35:52.716Z,100594.34
2022-08-17T00:38:21.301Z,100587.16
2022-08-17T00:40:51.946Z,100585.94
2022-08-17T00:43:31.602Z,100586.72
2022-08-17T00:46:01.284Z,100584.56
2022-08-17T00:48:30.744Z,100587.69
2022-08-17T00:51:08.172Z,100590.34
2022-08-17T00:53:39.649Z,100590.03
2022-08-17T00:56:10.077Z,100587.63
2022-08-17T00:58:40.000Z,100584.50
2022-08-17T01:01:12.382Z,100590.88
2022-08-17T01:03:49.664Z,100586.13
2022-08-17T01:06:17.604Z,100591.22
2022-08-17T01:08:45.889Z,100593.66
2022-08-17T01:11:13.610Z,100597.69
2022-08-17T01:13:44.688Z,100595.66
2022-08-17T01:16:17.115Z,100600.38
2022-08-17T01:18:47.803Z,100603.44
2022-08-17T01:21:21.545Z,100597.34
2022-08-17T01:23:50.706Z,100596.94
2022-08-17T01:26:20.067Z,100603.66
2022-08-17T01:28:54.729Z,100608.78
2022-08-17T01:31:28.819Z,100608.50
2022-08-17T01:33:58.262Z,100603.06
2022-08-17T01:36:26.073Z,100599.47
2022-08-17T01:38:55.281Z,100601.13
2022-08-17T01:41:24.829Z,100612.09
2022-08-17T01:43:55.845Z,100610.59
2022-08-17T01:46:27.500Z,100614.94
2022-08-17T01:49:00.649Z,100614.63
2022-08-17T01:51:33.236Z,100624.91
2022-08-17T01:54:07.828Z,100623.75
2022-08-17T01:56:40.172Z,100622.25
2022-08-17T01:59:11.581Z,100626.13
2022-08-17T02:01:41.217Z,100616.41
2022-08-17T02:04:10.426Z,100612.34
2022-08-17T02:06:45.055Z,100615.44
2022-08-17T02:09:26.072Z,100615.06
2022-08-17T02:12:00.173Z,100621.50
2022-08-17T02:14:47.960Z,100614.84
2022-08-17T02:17:15.836Z,100606.34
2022-08-17T02:19:43.570Z,100612.69
2022-08-17T02:22:11.818Z,100615.84
2022-08-17T02:25:01.219Z,100608.75
2022-08-17T02:27:28.900Z,100615.00
2022-08-17T02:29:56.894Z,100615.00
2022-08-17T02:32:28.256Z,100618.53
2022-08-17T02:34:56.894Z,100619.00
2022-08-17T02:37:25.470Z,100605.75
2022-08-17T02:39:56.976Z,100610.88
2022-08-17T02:42:29.337Z,100608.53
2022-08-17T02:44:57.075Z,100603.38
2022-08-17T02:47:24.841Z,100602.19
2022-08-17T02:49:54.338Z,100606.91
2022-08-17T02:52:43.003Z,100602.19
2022-08-17T02:55:16.373Z,100611.56
2022-08-17T02:57:44.417Z,100605.84
2022-08-17T03:00:15.152Z,100604.72
2022-08-17T03:02:44.640Z,100607.19
2022-08-17T03:05:14.962Z,100601.72
2022-08-17T03:07:43.062Z,100613.50
2022-08-17T03:10:13.267Z,100608.06
2022-08-17T03:12:43.319Z,100615.13
2022-08-17T03:15:13.716Z,100611.66
2022-08-17T03:17:41.432Z,100605.78
2022-08-17T03:20:10.246Z,100610.44
2022-08-17T03:22:40.828Z,100613.91
2022-08-17T03:25:11.305Z,100612.34
2022-08-17T03:27:42.134Z,100608.13
2022-08-17T03:30:15.921Z,100610.47
2022-08-17T03:32:46.392Z,100607.34
2022-08-17T03:35:17.805Z,100616.31
2022-08-17T03:37:46.958Z,100602.66
2022-08-17T03:40:34.770Z,100604.63
2022-08-17T03:43:15.133Z,100605.78
2022-08-17T03:46:01.928Z,100597.59
2022-08-17T03:48:47.439Z,100605.78
2022-08-17T03:51:37.901Z,100604.56
2022-08-17T03:54:23.796Z,100601.81
2022-08-17T03:57:02.179Z,100605.31
2022-08-17T03:59:32.054Z,100610.38
2022-08-17T04:02:04.767Z,100609.97
2022-08-17T04:04:32.834Z,100611.13
2022-08-17T04:07:00.572Z,100605.53
2022-08-17T04:09:28.754Z,100603.97
2022-08-17T04:11:57.335Z,100604.50
2022-08-17T04:14:36.248Z,100607.63
2022-08-17T04:17:19.135Z,100617.78
2022-08-17T04:19:47.743Z,100609.50
2022-08-17T04:22:30.774Z,100606.41
2022-08-17T04:25:01.786Z,100603.63
2022-08-17T04:27:29.493Z,100607.63
2022-08-17T04:29:58.678Z,100608.78
2022-08-17T04:33:03.939Z,100609.06
2022-08-17T04:35:18.189Z,100614.06
2022-08-17T04:37:47.368Z,100626.03
2022-08-17T04:40:32.783Z,100619.34
2022-08-17T04:43:05.764Z,100622.72
2022-08-17T04:45:34.974Z,100621.78
2022-08-17T04:48:02.770Z,100625.88
2022-08-17T04:50:30.515Z,100624.94
2022-08-17T04:52:58.562Z,100622.31
2022-08-17T04:55:26.604Z,100632.69
2022-08-17T04:57:54.402Z,100624.81
2022-08-17T05:00:22.396Z,100627.34
2022-08-17T05:02:52.500Z,100637.25
2022-08-17T05:05:21.125Z,100636.09
2022-08-17T05:07:49.311Z,100641.13
2022-08-17T05:10:17.272Z,100643.31
2022-08-17T05:12:44.957Z,100641.41
2022-08-17T05:15:15.997Z,100646.72
2022-08-17T05:17:43.936Z,100644.59
2022-08-17T05:20:13.193Z,100648.72
2022-08-17T05:22:51.223Z,100646.44
2022-08-17T05:25:25.513Z,100651.75
2022-08-17T05:27:54.292Z,100651.44
2022-08-17T05:30:22.827Z,100651.72
2022-08-17T05:32:55.466Z,100657.06
2022-08-17T05:35:25.802Z,100653.97
2022-08-17T05:37:54.506Z,100661.59
2022-08-17T05:40:25.908Z,100657.16
2022-08-17T05:43:04.927Z,100658.41
2022-08-17T05:45:54.417Z,100655.03
2022-08-17T05:48:22.093Z,100662.72
2022-08-17T05:51:24.876Z,100664.06
2022-08-17T05:54:04.123Z,100668.34
2022-08-17T05:56:57.355Z,100662.31
2022-08-17T05:59:36.244Z,100667.94
2022-08-17T06:02:10.844Z,100672.22
2022-08-17T06:05:05.811Z,100665.34
2022-08-17T06:07:45.258Z,100661.75
2022-08-17T06:10:18.015Z,100667.59
2022-08-17T06:13:01.721Z,100670.44
2022-08-17T06:15:36.878Z,100667.91
2022-08-17T06:18:08.974Z,100670.59
2022-08-17T06:20:41.424Z,100674.00
2022-08-17T06:23:15.401Z,100676.75
2022-08-17T06:25:48.884Z,100680.59
2022-08-17T06:28:24.861Z,100671.81
2022-08-17T06:31:00.800Z,100681.59
2022-08-17T06:33:34.230Z,100683.63
2022-08-17T06:36:14.639Z,100668.56
2022-08-17T06:38:56.825Z,100676.09
2022-08-17T06:41:31.472Z,100683.63
2022-08-17T06:44:09.988Z,100689.72
2022-08-17T06:46:41.616Z,100684.25
2022-08-17T06:49:25.933Z,100684.44
2022-08-17T06:51:58.481Z,100685.75
2022-08-17T06:54:39.661Z,100689.06
2022-08-17T06:57:15.614Z,100684.00
2022-08-17T06:59:55.533Z,100686.44
2022-08-17T07:02:52.032Z,100690.06
2022-08-17T07:05:25.558Z,100696.22
2022-08-17T07:08:04.460Z,100689.88
2022-08-17T07:10:44.635Z,100687.47
2022-08-17T07:13:27.456Z,100687.25
2022-08-17T07:16:04.741Z,100687.59
2022-08-17T07:18:34.557Z,100685.91
2022-08-17T07:21:17.549Z,100683.88
2022-08-17T07:24:01.806Z,100686.78
2022-08-17T07:26:30.956Z,100679.53
2022-08-17T07:29:02.301Z,100678.06
2022-08-17T07:31:33.717Z,100685.34
2022-08-17T07:34:08.721Z,100683.16
2022-08-17T07:36:36.566Z,100685.56
2022-08-17T07:39:05.565Z,100680.84
2022-08-17T07:41:57.519Z,100684.38
2022-08-17T07:44:27.654Z,100681.94
2022-08-17T07:47:13.698Z,100688.16
2022-08-17T07:49:46.460Z,100687.34
2022-08-17T07:52:51.775Z,100693.91
2022-08-17T07:55:31.419Z,100691.69
2022-08-17T07:58:00.845Z,100694.72
2022-08-17T08:00:32.422Z,100685.66
2022-08-17T08:03:16.632Z,100689.38
2022-08-17T08:05:55.916Z,100695.38
2022-08-17T08:08:28.467Z,100695.53
2022-08-17T08:11:06.166Z,100695.06
2022-08-17T08:13:36.017Z,100695.84
2022-08-17T08:16:30.660Z,100694.13
2022-08-17T08:19:01.632Z,100694.19
2022-08-17T08:21:43.369Z,100698.78
2022-08-17T08:24:42.206Z,100697.06
2022-08-17T08:27:29.060Z,100706.16
2022-08-17T08:30:05.464Z,100706.44
2022-08-17T08:32:48.566Z,100706.91
2022-08-17T08:35:29.563Z,100702.94
2022-08-17T08:38:08.177Z,100698.75
2022-08-17T08:40:57.372Z,100707.16
2022-08-17T08:43:36.731Z,100704.31
2022-08-17T08:46:15.367Z,100697.19
2022-08-17T08:49:34.006Z,100697.84
2022-08-17T08:52:32.274Z,100699.69
2022-08-17T08:55:09.298Z,100701.81
2022-08-17T08:57:44.576Z,100707.63
2022-08-17T09:00:16.649Z,100694.84
2022-08-17T09:03:08.415Z,100701.91
2022-08-17T09:05:56.230Z,100699.78
2022-08-17T09:08:31.797Z,100701.00
2022-08-17T09:11:04.808Z,100701.53
2022-08-17T09:13:44.006Z,100697.88
2022-08-17T09:16:16.396Z,100691.53
2022-08-17T09:18:59.896Z,100696.50
2022-08-17T09:21:38.163Z,100690.75
2022-08-17T09:24:25.034Z,100689.16
2022-08-17T09:26:59.964Z,100690.41
2022-08-17T09:29:35.014Z,100685.72
2022-08-17T09:32:05.848Z,100679.69
2022-08-17T09:34:54.903Z,100684.94
2022-08-17T09:37:29.452Z,100687.66
2022-08-17T09:40:09.442Z,100679.03
2022-08-17T09:42:45.349Z,100679.09
2022-08-17T09:45:27.577Z,100685.44
2022-08-17T09:48:03.062Z,100692.25
2022-08-17T09:51:03.388Z,100693.00
2022-08-17T09:53:31.766Z,100685.34
2022-08-17T09:56:17.580Z,100689.84
2022-08-17T09:59:03.798Z,100686.38
2022-08-17T10:01:38.417Z,100683.34
2022-08-17T10:04:29.626Z,100685.59
2022-08-17T10:07:07.281Z,100681.25
2022-08-17T10:09:53.101Z,100678.31
2022-08-17T10:12:32.490Z,100676.91
2022-08-17T10:15:12.722Z,100674.25
2022-08-17T10:17:54.105Z,100672.78
2022-08-17T10:20:28.715Z,100671.16
2022-08-17T10:23:21.684Z,100667.31
2022-08-17T10:26:11.145Z,100673.03
2022-08-17T10:28:45.283Z,100669.88
2022-08-17T10:31:34.666Z,100667.38
2022-08-17T10:34:26.056Z,100679.88
2022-08-17T10:37:00.518Z,100679.75
2022-08-17T10:39:52.032Z,100680.75
2022-08-17T10:42:30.822Z,100684.41
2022-08-17T10:45:07.254Z,100669.19
2022-08-17T10:48:06.569Z,100665.34
2022-08-17T10:50:50.874Z,100674.25
2022-08-17T10:53:52.560Z,100671.63
2022-08-17T10:56:47.533Z,100674.97
2022-08-17T10:59:50.338Z,100677.47
2022-08-17T11:02:26.126Z,100667.44
2022-08-17T11:05:18.627Z,100669.34
2022-08-17T11:08:08.240Z,100663.78
2022-08-17T11:10:56.795Z,100663.56
2022-08-17T11:13:38.834Z,100660.84
2022-08-17T11:16:27.068Z,100657.25
2022-08-17T11:19:37.342Z,100652.84
2022-08-17T11:22:33.383Z,100648.63
2022-08-17T11:25:14.850Z,100646.56
2022-08-17T11:27:44.496Z,100633.81
2022-08-17T11:30:35.972Z,100635.59
2022-08-17T11:33:42.729Z,100632.88
2022-08-17T11:36:19.983Z,100634.81
2022-08-17T11:38:58.011Z,100634.03
2022-08-17T11:41:33.263Z,100631.78
2022-08-17T11:44:17.689Z,100630.28
2022-08-17T11:47:19.437Z,100633.00
2022-08-17T11:50:25.697Z,100623.03
2022-08-17T11:52:55.686Z,100627.41
2022-08-17T11:55:57.746Z,100623.81
2022-08-17T11:58:41.938Z,100618.94
2022-08-17T12:01:12.371Z,100620.78
2022-08-17T12:03:55.925Z,100628.50
2022-08-17T12:06:47.729Z,100625.47
2022-08-17T12:09:20.707Z,100619.81
2022-08-17T12:12:13.134Z,100627.16
2022-08-17T12:17:41.586Z,100621.19
2022-08-17T12:20:27.842Z,100622.84
2022-08-17T12:23:04.927Z,100621.03
2022-08-17T12:25:37.331Z,100629.28
2022-08-17T12:28:07.571Z,100623.28
2022-08-17T12:30:37.492Z,100627.56
2022-08-17T12:33:28.184Z,100634.41
2022-08-17T12:36:02.952Z,100622.75
2022-08-17T12:38:32.986Z,100624.41
2022-08-17T12:41:24.378Z,100626.97
2022-08-17T12:44:03.645Z,100618.72
2022-08-17T12:46:36.801Z,100620.09
2022-08-17T12:49:16.997Z,100617.56
2022-08-17T12:51:48.740Z,100609.59
2022-08-17T12:54:46.965Z,100613.06
2022-08-17T12:57:20.879Z,100608.88
2022-08-17T13:00:40.949Z,100597.63
2022-08-17T13:03:19.188Z,100589.81
2022-08-17T13:06:00.487Z,100589.72
2022-08-17T13:08:39.377Z,100586.41
2022-08-17T13:11:21.468Z,100583.38
2022-08-17T13:13:56.321Z,100582.94
2022-08-17T13:16:31.175Z,100579.81
2022-08-17T13:19:10.381Z,100593.00
2022-08-17T13:21:49.300Z,100587.28
2022-08-17T13:24:26.718Z,100590.06
2022-08-17T13:27:10.046Z,100588.28
2022-08-17T13:29:42.999Z,100589.44
2022-08-17T13:32:24.369Z,100587.22
2022-08-17T13:35:15.314Z,100582.81
2022-08-17T13:38:02.291Z,100589.13
2022-08-17T13:40:42.834Z,100589.94
2022-08-17T13:43:15.463Z,100578.09
2022-08-17T13:45:51.204Z,100590.63
2022-08-17T13:48:39.551Z,100587.34
2022-08-17T13:51:24.506Z,100586.59
2022-08-17T13:54:11.380Z,100588.34
2022-08-17T13:56:54.151Z,100580.34
2022-08-17T13:59:54.564Z,100578.53
2022-08-17T14:02:29.300Z,100583.69
2022-08-17T14:05:06.089Z,100588.53
2022-08-17T14:07:41.973Z,100586.41
2022-08-17T14:10:20.214Z,100579.00
2022-08-17T14:12:56.458Z,100588.16
2022-08-17T14:15:55.428Z,100584.56
2022-08-17T14:18:37.503Z,100577.91
2022-08-17T14:21:19.483Z,100572.13
2022-08-17T14:23:54.603Z,100571.41
2022-08-17T14:26:33.224Z,100569.31
2022-08-17T14:29:14.996Z,100571.94
2022-08-17T14:31:53.291Z,100572.19
2022-08-17T14:34:28.520Z,100567.25
2022-08-17T14:37:01.951Z,100569.56
2022-08-17T14:39:33.227Z,100567.50
2022-08-17T14:42:08.727Z,100562.56
2022-08-17T14:44:42.308Z,100572.13
2022-08-17T14:47:15.156Z,100555.63
2022-08-17T14:49:47.540Z,100568.13
2022-08-17T14:52:26.211Z,100563.28
2022-08-17T14:54:57.787Z,100559.13
2022-08-17T14:57:34.106Z,100561.38
2022-08-17T15:00:12.524Z,100569.19
2022-08-17T15:02:48.162Z,100560.78
2022-08-17T15:05:23.277Z,100551.28
2022-08-17T15:07:57.089Z,100550.59
2022-08-17T15:10:31.893Z,100556.16
2022-08-17T15:13:03.790Z,100554.91
2022-08-17T15:15:39.800Z,100561.00
2022-08-17T15:18:11.214Z,100552.91
2022-08-17T15:20:42.587Z,100551.63
2022-08-17T15:23:18.159Z,100558.44
2022-08-17T15:25:51.577Z,100556.44
2022-08-17T15:28:23.366Z,100557.56
2022-08-17T15:31:02.240Z,100552.09
2022-08-17T15:33:34.719Z,100559.41
2022-08-17T15:36:08.956Z,100555.72
2022-08-17T15:38:41.443Z,100557.78
2022-08-17T15:41:22.104Z,100552.25
2022-08-17T15:43:53.528Z,100555.88
2022-08-17T15:46:28.097Z,100551.03
2022-08-17T15:49:00.819Z,100557.09
2022-08-17T15:51:37.329Z,100554.66
2022-08-17T15:54:19.325Z,100547.00
2022-08-17T15:56:54.123Z,100538.25
2022-08-17T15:59:26.186Z,100533.72
2022-08-17T16:03:07.855Z,100532.72
2022-08-17T16:04:52.026Z,100530.13
2022-08-17T16:07:28.237Z,100538.44
2022-08-17T16:09:57.778Z,100547.47
2022-08-17T16:12:28.081Z,100538.03
2022-08-17T16:15:00.875Z,100533.88
2022-08-17T16:17:40.485Z,100524.38
2022-08-17T16:20:20.713Z,100527.34
2022-08-17T16:22:53.112Z,100528.22
2022-08-17T16:25:52.533Z,100531.84
2022-08-17T16:28:35.881Z,100530.50
2022-08-17T16:31:13.742Z,100523.47
2022-08-17T16:34:16.147Z,100521.34
2022-08-17T16:36:41.199Z,100528.09
2022-08-17T16:39:22.913Z,100520.38
2022-08-17T16:41:52.148Z,100525.06
2022-08-17T16:44:28.309Z,100538.00
2022-08-17T16:46:58.882Z,100529.94
2022-08-17T16:49:36.902Z,100529.19
2022-08-17T16:52:13.100Z,100526.28
2022-08-17T16:54:46.748Z,100529.06
2022-08-17T16:57:18.904Z,100518.59
2022-08-17T16:59:56.490Z,100521.56
2022-08-17T17:02:35.054Z,100522.03
2022-08-17T17:05:15.673Z,100522.72
2022-08-17T17:08:07.091Z,100514.06
2022-08-17T17:10:47.533Z,100521.69
2022-08-17T17:13:30.286Z,100524.91
2022-08-17T17:16:07.127Z,100518.63
2022-08-17T17:18:44.350Z,100516.09
2022-08-17T17:21:22.608Z,100513.69
2022-08-17T17:24:00.488Z,100519.72
2022-08-17T17:26:51.924Z,100523.00
2022-08-17T17:29:47.446Z,100527.41
2022-08-17T17:32:30.636Z,100528.50
2022-08-17T17:35:08.509Z,100515.19
2022-08-17T17:37:43.133Z,100520.34
2022-08-17T17:40:21.402Z,100524.59
2022-08-17T17:42:56.524Z,100523.66
2022-08-17T17:45:36.060Z,100517.94
2022-08-17T17:48:09.574Z,100518.59
2022-08-17T17:50:52.091Z,100516.94
2022-08-17T17:53:35.419Z,100518.84
2022-08-17T17:56:43.132Z,100514.91
2022-08-17T17:59:25.117Z,100516.25
2022-08-17T18:02:14.109Z,100518.91
2022-08-17T18:04:53.441Z,100522.75
2022-08-17T18:07:33.373Z,100521.59
2022-08-17T18:10:19.701Z,100530.22
2022-08-17T18:13:08.928Z,100533.28
2022-08-17T18:15:56.227Z,100528.09
2022-08-17T18:18:41.795Z,100527.19
2022-08-17T18:21:21.658Z,100536.47
2022-08-17T18:23:59.814Z,100541.31
2022-08-17T18:26:45.003Z,100546.56
2022-08-17T18:29:31.459Z,100540.41
2022-08-17T18:32:32.727Z,100552.94
2022-08-17T18:35:19.468Z,100540.63
2022-08-17T18:37:53.449Z,100549.88
2022-08-17T18:40:41.373Z,100549.75
2022-08-17T18:43:28.333Z,100556.41
2022-08-17T18:46:29.885Z,100555.03
2022-08-17T18:49:03.289Z,100549.53
2022-08-17T18:51:41.914Z,100549.41
2022-08-17T18:54:24.386Z,100549.00
2022-08-17T18:57:00.040Z,100548.38
2022-08-17T18:59:45.750Z,100553.94
2022-08-17T19:02:39.102Z,100559.03
2022-08-17T19:05:29.167Z,100560.13
2022-08-17T19:08:19.969Z,100551.34
2022-08-17T19:10:54.789Z,100552.44
2022-08-17T19:13:35.209Z,100553.22
2022-08-17T19:16:19.450Z,100563.38
2022-08-17T19:19:03.909Z,100548.75
2022-08-17T19:21:41.421Z,100550.78
2022-08-17T19:24:20.187Z,100554.75
2022-08-17T19:26:56.804Z,100540.59
2022-08-17T19:29:38.354Z,100546.13
2022-08-17T19:32:15.891Z,100547.34
2022-08-17T19:34:48.168Z,100548.44
2022-08-17T19:37:36.124Z,100552.88
2022-08-17T19:40:41.894Z,100544.25
2022-08-17T19:43:26.301Z,100544.41
2022-08-17T19:46:10.608Z,100558.38
2022-08-17T19:48:55.997Z,100555.47
2022-08-17T19:51:44.374Z,100543.78
2022-08-17T19:54:23.541Z,100546.38
2022-08-17T19:57:10.811Z,100544.69
2022-08-17T19:59:55.807Z,100547.84
2022-08-17T20:02:40.772Z,100544.06
2022-08-17T20:05:20.736Z,100545.88
2022-08-17T20:07:57.548Z,100548.03
2022-08-17T20:10:35.376Z,100549.50
2022-08-17T20:13:14.110Z,100547.63
2022-08-17T20:15:47.668Z,100537.38
2022-08-17T20:18:29.233Z,100543.47
2022-08-17T20:21:10.100Z,100543.94
2022-08-17T20:23:57.206Z,100540.97
2022-08-17T20:26:31.900Z,100538.81
2022-08-17T20:29:36.821Z,100540.13
2022-08-17T20:32:37.371Z,100544.81
2022-08-17T20:35:26.424Z,100531.28
2022-08-17T20:38:04.503Z,100547.69
2022-08-17T20:40:41.492Z,100548.56
2022-08-17T20:43:52.250Z,100549.94
2022-08-17T20:46:51.906Z,100546.97
2022-08-17T20:49:30.131Z,100546.00
2022-08-17T20:52:11.874Z,100554.97
2022-08-17T20:54:53.735Z,100551.56
2022-08-17T20:57:50.191Z,100549.81
2022-08-17T21:00:46.210Z,100551.91
2022-08-17T21:03:52.407Z,100562.75
2022-08-17T21:06:23.973Z,100555.66
2022-08-17T21:08:57.606Z,100554.13
2022-08-17T21:12:04.198Z,100548.75
2022-08-17T21:14:41.946Z,100552.50
2022-08-17T21:17:35.012Z,100553.59
2022-08-17T21:20:12.176Z,100553.38
2022-08-17T21:22:56.351Z,100554.72
2022-08-17T21:25:42.921Z,100563.22
2022-08-17T21:28:33.618Z,100561.78
2022-08-17T21:31:08.969Z,100561.59
2022-08-17T21:33:39.535Z,100560.91
2022-08-17T21:36:31.581Z,100559.19
2022-08-17T21:39:09.084Z,100559.94
2022-08-17T21:41:52.734Z,100561.16
2022-08-17T21:44:31.545Z,100572.75
2022-08-17T21:47:16.603Z,100564.91
2022-08-17T21:49:44.370Z,100562.50
2022-08-17T21:52:15.691Z,100563.81
2022-08-17T21:54:50.947Z,100558.97
2022-08-17T21:57:22.357Z,100567.34
2022-08-17T21:59:56.174Z,100568.66
2022-08-17T22:02:28.087Z,100572.94
2022-08-17T22:05:00.508Z,100565.66
2022-08-17T22:07:37.949Z,100567.00
2022-08-17T22:10:06.981Z,100569.00
2022-08-17T22:12:34.804Z,100566.00
2022-08-17T22:15:07.504Z,100571.50
2022-08-17T22:17:40.144Z,100575.59
2022-08-17T22:20:14.288Z,100575.91
2022-08-17T22:23:25.332Z,100577.13
2022-08-17T22:26:02.382Z,100576.81
2022-08-17T22:28:38.298Z,100574.47
2022-08-17T22:31:09.836Z,100579.22
2022-08-17T22:33:46.057Z,100575.03
2022-08-17T22:36:26.755Z,100582.63
2022-08-17T22:38:59.604Z,100577.56
2022-08-17T22:41:34.558Z,100574.34
2022-08-17T22:44:10.841Z,100576.56
2022-08-17T22:46:58.798Z,100580.28
2022-08-17T22:49:29.779Z,100581.50
2022-08-17T22:52:08.624Z,100581.25
2022-08-17T22:54:54.256Z,100578.94
2022-08-17T22:57:57.457Z,100588.44
2022-08-17T23:00:38.469Z,100592.06
2022-08-17T23:03:12.517Z,100595.22
2022-08-17T23:05:44.490Z,100593.25
2022-08-17T23:08:12.836Z,100584.13
2022-08-17T23:10:41.818Z,100586.53
2022-08-17T23:13:11.748Z,100587.22
2022-08-17T23:15:41.417Z,100586.75
2022-08-17T23:18:10.701Z,100583.78
2022-08-17T23:20:41.141Z,100577.19
2022-08-17T23:23:09.995Z,100580.38
2022-08-17T23:25:37.899Z,100579.56
2022-08-17T23:28:07.853Z,100574.53
2022-08-17T23:30:40.028Z,100570.66
2022-08-17T23:33:16.130Z,100571.50
2022-08-17T23:35:44.539Z,100570.59
2022-08-17T23:38:13.706Z,100570.59
2022-08-17T23:40:41.901Z,100568.72
2022-08-17T23:43:17.634Z,100575.00
2022-08-17T23:48:53.458Z,100560.97
2022-08-17T23:51:24.541Z,100566.94
2022-08-17T23:53:56.562Z,100563.94
2022-08-17T23:56:25.995Z,100558.09
2022-08-17T23:58:55.772Z,100552.72
